sensor_id;sensor_type;location;lat;lon;timestamp;temperature;humidity
59999;DHT22;45859;51.378;6.736;2022-12-07T00:01:42;5.30;99.90
59999;DHT22;45859;51.378;6.736;2022-12-07T00:04:12;5.30;99.90
59999;DHT22;45859;51.378;6.736;2022-12-07T00:06:43;5.30;99.90
59999;DHT22;45859;51.378;6.736;2022-12-07T00:09:14;5.30;99.90
59999;DHT22;45859;51.378;6.736;2022-12-07T00:11:41;5.30;99.90
59999;DHT22;45859;51.378;6.736;2022-12-07T00:14:11;5.30;99.90
59999;DHT22;45859;51.378;6.736;2022-12-07T00:16:37;5.30;99.90
59999;DHT22;45859;51.378;6.736;2022-12-07T00:19:03;5.30;99.90
59999;DHT22;45859;51.378;6.736;2022-12-07T00:21:32;5.30;99.90
59999;DHT22;45859;51.378;6.736;2022-12-07T00:23:58;5.30;99.90
59999;DHT22;45859;51.378;6.736;2022-12-07T00:26:29;5.30;99.90
59999;DHT22;45859;51.378;6.736;2022-12-07T00:28:57;5.30;99.90
59999;DHT22;45859;51.378;6.736;2022-12-07T00:31:29;5.30;99.90
59999;DHT22;45859;51.378;6.736;2022-12-07T00:33:56;5.30;99.90
59999;DHT22;45859;51.378;6.736;2022-12-07T00:36:23;5.30;99.90
59999;DHT22;45859;51.378;6.736;2022-12-07T00:38:50;5.30;99.90
59999;DHT22;45859;51.378;6.736;2022-12-07T00:41:20;5.30;99.90
59999;DHT22;45859;51.378;6.736;2022-12-07T00:43:48;5.30;99.90
59999;DHT22;45859;51.378;6.736;2022-12-07T00:46:15;5.20;99.90
59999;DHT22;45859;51.378;6.736;2022-12-07T00:48:41;5.20;99.90
59999;DHT22;45859;51.378;6.736;2022-12-07T00:51:08;5.30;99.90
59999;DHT22;45859;51.378;6.736;2022-12-07T00:53:35;5.30;99.90
59999;DHT22;45859;51.378;6.736;2022-12-07T00:56:16;5.20;99.90
59999;DHT22;45859;51.378;6.736;2022-12-07T00:58:43;5.20;99.90
59999;DHT22;45859;51.378;6.736;2022-12-07T01:01:10;5.20;99.90
59999;DHT22;45859;51.378;6.736;2022-12-07T01:03:36;5.20;99.90
59999;DHT22;45859;51.378;6.736;2022-12-07T01:06:03;5.20;99.90
59999;DHT22;45859;51.378;6.736;2022-12-07T01:08:29;5.20;99.90
59999;DHT22;45859;51.378;6.736;2022-12-07T01:11:06;5.20;99.90
59999;DHT22;45859;51.378;6.736;2022-12-07T01:13:33;5.20;99.90
59999;DHT22;45859;51.378;6.736;2022-12-07T01:16:01;5.20;99.90
59999;DHT22;45859;51.378;6.736;2022-12-07T01:18:29;5.20;99.90
59999;DHT22;45859;51.378;6.736;2022-12-07T01:23:25;5.20;99.90
59999;DHT22;45859;51.378;6.736;2022-12-07T01:25:58;5.20;99.90
59999;DHT22;45859;51.378;6.736;2022-12-07T01:28:24;5.20;99.90
59999;DHT22;45859;51.378;6.736;2022-12-07T01:31:02;5.10;99.90
59999;DHT22;45859;51.378;6.736;2022-12-07T01:33:30;5.10;99.90
59999;DHT22;45859;51.378;6.736;2022-12-07T01:36:17;5.00;99.90
59999;DHT22;45859;51.378;6.736;2022-12-07T01:38:44;5.00;99.90
59999;DHT22;45859;51.378;6.736;2022-12-07T01:41:10;4.90;99.90
59999;DHT22;45859;51.378;6.736;2022-12-07T01:43:36;4.90;99.90
59999;DHT22;45859;51.378;6.736;2022-12-07T01:46:03;4.90;99.90
59999;DHT22;45859;51.378;6.736;2022-12-07T01:48:36;4.90;99.90
59999;DHT22;45859;51.378;6.736;2022-12-07T01:51:06;4.90;99.90
59999;DHT22;45859;51.378;6.736;2022-12-07T01:53:34;4.80;99.90
59999;DHT22;45859;51.378;6.736;2022-12-07T01:56:01;4.90;99.90
59999;DHT22;45859;51.378;6.736;2022-12-07T01:58:28;4.90;99.90
59999;DHT22;45859;51.378;6.736;2022-12-07T02:00:54;4.80;99.90
59999;DHT22;45859;51.378;6.736;2022-12-07T02:03:26;4.80;99.90
59999;DHT22;45859;51.378;6.736;2022-12-07T02:05:53;4.70;99.90
59999;DHT22;45859;51.378;6.736;2022-12-07T02:08:20;4.70;99.90
59999;DHT22;45859;51.378;6.736;2022-12-07T02:10:46;4.60;99.90
59999;DHT22;45859;51.378;6.736;2022-12-07T02:13:21;4.60;99.90
59999;DHT22;45859;51.378;6.736;2022-12-07T02:21:08;4.50;99.90
59999;DHT22;45859;51.378;6.736;2022-12-07T02:23:59;4.50;99.90
59999;DHT22;45859;51.378;6.736;2022-12-07T02:29:54;4.60;99.90
59999;DHT22;45859;51.378;6.736;2022-12-07T02:32:27;4.70;99.90
59999;DHT22;45859;51.378;6.736;2022-12-07T02:37:39;4.60;99.90
59999;DHT22;45859;51.378;6.736;2022-12-07T02:42:40;4.60;99.90
59999;DHT22;45859;51.378;6.736;2022-12-07T02:45:07;4.60;99.90
59999;DHT22;45859;51.378;6.736;2022-12-07T02:47:35;4.60;99.90
59999;DHT22;45859;51.378;6.736;2022-12-07T02:50:06;4.60;99.90
59999;DHT22;45859;51.378;6.736;2022-12-07T02:52:32;4.50;99.90
59999;DHT22;45859;51.378;6.736;2022-12-07T02:54:58;4.50;99.90
59999;DHT22;45859;51.378;6.736;2022-12-07T02:57:45;4.40;99.90
59999;DHT22;45859;51.378;6.736;2022-12-07T03:00:19;4.40;99.90
59999;DHT22;45859;51.378;6.736;2022-12-07T03:05:43;4.30;99.90
59999;DHT22;45859;51.378;6.736;2022-12-07T03:08:29;4.30;99.90
59999;DHT22;45859;51.378;6.736;2022-12-07T03:11:03;4.30;99.90
59999;DHT22;45859;51.378;6.736;2022-12-07T03:13:42;4.30;99.90
59999;DHT22;45859;51.378;6.736;2022-12-07T03:21:17;4.10;99.90
59999;DHT22;45859;51.378;6.736;2022-12-07T03:23:47;4.10;99.90
59999;DHT22;45859;51.378;6.736;2022-12-07T03:26:14;4.10;99.90
59999;DHT22;45859;51.378;6.736;2022-12-07T03:28:48;4.10;99.90
59999;DHT22;45859;51.378;6.736;2022-12-07T03:31:37;4.10;99.90
59999;DHT22;45859;51.378;6.736;2022-12-07T03:34:14;4.00;99.90
59999;DHT22;45859;51.378;6.736;2022-12-07T03:37:08;4.00;99.90
59999;DHT22;45859;51.378;6.736;2022-12-07T03:39:44;4.00;99.90
59999;DHT22;45859;51.378;6.736;2022-12-07T03:42:10;3.90;99.90
59999;DHT22;45859;51.378;6.736;2022-12-07T03:44:38;3.80;99.90
59999;DHT22;45859;51.378;6.736;2022-12-07T03:47:12;3.80;99.90
59999;DHT22;45859;51.378;6.736;2022-12-07T03:49:49;3.70;99.90
59999;DHT22;45859;51.378;6.736;2022-12-07T03:57:43;3.70;99.90
59999;DHT22;45859;51.378;6.736;2022-12-07T04:00:11;3.80;99.90
59999;DHT22;45859;51.378;6.736;2022-12-07T04:02:37;3.90;99.90
59999;DHT22;45859;51.378;6.736;2022-12-07T04:05:04;3.90;99.90
59999;DHT22;45859;51.378;6.736;2022-12-07T04:07:30;4.00;99.90
59999;DHT22;45859;51.378;6.736;2022-12-07T04:09:56;4.00;99.90
59999;DHT22;45859;51.378;6.736;2022-12-07T04:12:22;4.00;99.90
59999;DHT22;45859;51.378;6.736;2022-12-07T04:14:48;4.00;99.90
59999;DHT22;45859;51.378;6.736;2022-12-07T04:17:14;4.00;99.90
59999;DHT22;45859;51.378;6.736;2022-12-07T04:19:40;4.10;99.90
59999;DHT22;45859;51.378;6.736;2022-12-07T04:22:06;4.10;99.90
59999;DHT22;45859;51.378;6.736;2022-12-07T04:24:33;4.10;99.90
59999;DHT22;45859;51.378;6.736;2022-12-07T04:26:59;4.10;99.90
59999;DHT22;45859;51.378;6.736;2022-12-07T04:29:25;4.10;99.90
59999;DHT22;45859;51.378;6.736;2022-12-07T04:31:52;4.10;99.90
59999;DHT22;45859;51.378;6.736;2022-12-07T04:34:19;4.10;99.90
59999;DHT22;45859;51.378;6.736;2022-12-07T04:36:46;4.10;99.90
59999;DHT22;45859;51.378;6.736;2022-12-07T04:39:29;4.00;99.90
59999;DHT22;45859;51.378;6.736;2022-12-07T04:41:56;4.00;99.90
59999;DHT22;45859;51.378;6.736;2022-12-07T04:44:23;3.90;99.90
59999;DHT22;45859;51.378;6.736;2022-12-07T04:46:50;3.90;99.90
59999;DHT22;45859;51.378;6.736;2022-12-07T04:49:16;4.00;99.90
59999;DHT22;45859;51.378;6.736;2022-12-07T04:51:43;4.00;99.90
59999;DHT22;45859;51.378;6.736;2022-12-07T04:54:09;4.00;99.90
59999;DHT22;45859;51.378;6.736;2022-12-07T04:56:35;3.90;99.90
59999;DHT22;45859;51.378;6.736;2022-12-07T04:59:01;4.00;99.90
59999;DHT22;45859;51.378;6.736;2022-12-07T05:01:27;4.00;99.90
59999;DHT22;45859;51.378;6.736;2022-12-07T05:03:53;4.00;99.90
59999;DHT22;45859;51.378;6.736;2022-12-07T05:06:19;3.90;99.90
59999;DHT22;45859;51.378;6.736;2022-12-07T05:08:45;3.90;99.90
59999;DHT22;45859;51.378;6.736;2022-12-07T05:11:12;3.80;99.90
59999;DHT22;45859;51.378;6.736;2022-12-07T05:14:02;3.80;99.90
59999;DHT22;45859;51.378;6.736;2022-12-07T05:16:29;3.80;99.90
59999;DHT22;45859;51.378;6.736;2022-12-07T05:18:55;3.80;99.90
59999;DHT22;45859;51.378;6.736;2022-12-07T05:21:20;3.80;99.90
59999;DHT22;45859;51.378;6.736;2022-12-07T05:23:46;3.80;99.90
59999;DHT22;45859;51.378;6.736;2022-12-07T05:26:12;3.80;99.90
59999;DHT22;45859;51.378;6.736;2022-12-07T05:28:37;3.80;99.90
59999;DHT22;45859;51.378;6.736;2022-12-07T05:31:03;3.80;99.90
59999;DHT22;45859;51.378;6.736;2022-12-07T05:33:29;3.80;99.90
59999;DHT22;45859;51.378;6.736;2022-12-07T05:35:55;3.90;99.90
59999;DHT22;45859;51.378;6.736;2022-12-07T05:38:20;3.90;99.90
59999;DHT22;45859;51.378;6.736;2022-12-07T05:40:46;3.90;99.90
59999;DHT22;45859;51.378;6.736;2022-12-07T05:43:12;3.90;99.90
59999;DHT22;45859;51.378;6.736;2022-12-07T05:45:38;3.90;99.90
59999;DHT22;45859;51.378;6.736;2022-12-07T05:48:03;3.90;99.90
59999;DHT22;45859;51.378;6.736;2022-12-07T05:50:29;3.90;99.90
59999;DHT22;45859;51.378;6.736;2022-12-07T05:52:55;3.90;99.90
59999;DHT22;45859;51.378;6.736;2022-12-07T05:55:20;3.90;99.90
59999;DHT22;45859;51.378;6.736;2022-12-07T05:57:46;3.90;99.90
59999;DHT22;45859;51.378;6.736;2022-12-07T06:00:30;3.90;99.90
59999;DHT22;45859;51.378;6.736;2022-12-07T06:02:56;3.90;99.90
59999;DHT22;45859;51.378;6.736;2022-12-07T06:05:22;4.00;99.90
59999;DHT22;45859;51.378;6.736;2022-12-07T06:07:47;3.90;99.90
59999;DHT22;45859;51.378;6.736;2022-12-07T06:10:13;3.90;99.90
59999;DHT22;45859;51.378;6.736;2022-12-07T06:12:39;4.00;99.90
59999;DHT22;45859;51.378;6.736;2022-12-07T06:15:08;4.00;99.90
59999;DHT22;45859;51.378;6.736;2022-12-07T06:17:35;3.90;99.90
59999;DHT22;45859;51.378;6.736;2022-12-07T06:20:01;3.90;99.90
59999;DHT22;45859;51.378;6.736;2022-12-07T06:22:26;3.90;99.90
59999;DHT22;45859;51.378;6.736;2022-12-07T06:24:52;3.90;99.90
59999;DHT22;45859;51.378;6.736;2022-12-07T06:27:17;4.00;99.90
59999;DHT22;45859;51.378;6.736;2022-12-07T06:29:43;3.90;99.90
59999;DHT22;45859;51.378;6.736;2022-12-07T06:32:09;3.90;99.90
59999;DHT22;45859;51.378;6.736;2022-12-07T06:34:35;3.90;99.90
59999;DHT22;45859;51.378;6.736;2022-12-07T06:37:00;3.90;99.90
59999;DHT22;45859;51.378;6.736;2022-12-07T06:39:27;3.90;99.90
59999;DHT22;45859;51.378;6.736;2022-12-07T06:41:53;3.90;99.90
59999;DHT22;45859;51.378;6.736;2022-12-07T06:44:20;3.90;99.90
59999;DHT22;45859;51.378;6.736;2022-12-07T06:46:47;3.90;99.90
59999;DHT22;45859;51.378;6.736;2022-12-07T06:49:13;3.90;99.90
59999;DHT22;45859;51.378;6.736;2022-12-07T06:51:39;3.90;99.90
59999;DHT22;45859;51.378;6.736;2022-12-07T06:54:08;3.90;99.90
59999;DHT22;45859;51.378;6.736;2022-12-07T06:56:34;3.90;99.90
59999;DHT22;45859;51.378;6.736;2022-12-07T06:58:59;3.80;99.90
59999;DHT22;45859;51.378;6.736;2022-12-07T07:01:25;3.80;99.90
59999;DHT22;45859;51.378;6.736;2022-12-07T07:03:50;3.80;99.90
59999;DHT22;45859;51.378;6.736;2022-12-07T07:06:17;3.80;99.90
59999;DHT22;45859;51.378;6.736;2022-12-07T07:08:43;3.90;99.90
59999;DHT22;45859;51.378;6.736;2022-12-07T07:11:09;3.90;99.90
59999;DHT22;45859;51.378;6.736;2022-12-07T07:13:35;3.90;99.90
59999;DHT22;45859;51.378;6.736;2022-12-07T07:16:01;3.90;99.90
59999;DHT22;45859;51.378;6.736;2022-12-07T07:18:27;5.40;99.90
59999;DHT22;45859;51.378;6.736;2022-12-07T07:20:53;3.90;99.90
59999;DHT22;45859;51.378;6.736;2022-12-07T07:23:20;3.80;99.90
59999;DHT22;45859;51.378;6.736;2022-12-07T07:25:46;3.70;99.90
59999;DHT22;45859;51.378;6.736;2022-12-07T07:28:13;3.70;99.90
59999;DHT22;45859;51.378;6.736;2022-12-07T07:30:38;3.60;99.90
59999;DHT22;45859;51.378;6.736;2022-12-07T07:33:05;3.60;99.90
59999;DHT22;45859;51.378;6.736;2022-12-07T07:35:32;3.60;99.90
59999;DHT22;45859;51.378;6.736;2022-12-07T07:37:58;3.60;99.90
59999;DHT22;45859;51.378;6.736;2022-12-07T07:40:25;3.60;99.90
59999;DHT22;45859;51.378;6.736;2022-12-07T07:42:52;3.60;99.90
59999;DHT22;45859;51.378;6.736;2022-12-07T07:45:20;3.60;99.90
59999;DHT22;45859;51.378;6.736;2022-12-07T07:47:46;3.60;99.90
59999;DHT22;45859;51.378;6.736;2022-12-07T07:50:12;3.60;99.90
59999;DHT22;45859;51.378;6.736;2022-12-07T07:52:38;3.60;99.90
59999;DHT22;45859;51.378;6.736;2022-12-07T07:55:04;3.60;99.90
59999;DHT22;45859;51.378;6.736;2022-12-07T07:57:30;3.50;99.90
59999;DHT22;45859;51.378;6.736;2022-12-07T07:59:56;3.50;99.90
59999;DHT22;45859;51.378;6.736;2022-12-07T08:02:22;3.50;99.90
59999;DHT22;45859;51.378;6.736;2022-12-07T08:04:48;3.40;99.90
59999;DHT22;45859;51.378;6.736;2022-12-07T08:07:15;3.40;99.90
59999;DHT22;45859;51.378;6.736;2022-12-07T08:09:41;3.40;99.90
59999;DHT22;45859;51.378;6.736;2022-12-07T08:12:07;3.40;99.90
59999;DHT22;45859;51.378;6.736;2022-12-07T08:14:33;3.50;99.90
59999;DHT22;45859;51.378;6.736;2022-12-07T08:16:59;3.50;99.90
59999;DHT22;45859;51.378;6.736;2022-12-07T08:19:25;3.60;99.90
59999;DHT22;45859;51.378;6.736;2022-12-07T08:21:51;3.70;99.90
59999;DHT22;45859;51.378;6.736;2022-12-07T08:24:17;3.70;99.90
59999;DHT22;45859;51.378;6.736;2022-12-07T08:26:43;3.80;99.90
59999;DHT22;45859;51.378;6.736;2022-12-07T08:29:09;3.90;99.90
59999;DHT22;45859;51.378;6.736;2022-12-07T08:31:35;3.90;99.90
59999;DHT22;45859;51.378;6.736;2022-12-07T08:34:01;3.90;99.90
59999;DHT22;45859;51.378;6.736;2022-12-07T08:36:26;3.90;99.90
59999;DHT22;45859;51.378;6.736;2022-12-07T08:38:52;3.90;99.90
59999;DHT22;45859;51.378;6.736;2022-12-07T08:41:18;4.00;99.90
59999;DHT22;45859;51.378;6.736;2022-12-07T08:43:44;4.00;99.90
59999;DHT22;45859;51.378;6.736;2022-12-07T08:48:44;4.20;99.90
59999;DHT22;45859;51.378;6.736;2022-12-07T08:51:12;4.30;99.90
59999;DHT22;45859;51.378;6.736;2022-12-07T08:53:40;4.40;99.90
59999;DHT22;45859;51.378;6.736;2022-12-07T08:56:06;4.40;99.90
59999;DHT22;45859;51.378;6.736;2022-12-07T08:58:33;4.50;99.90
59999;DHT22;45859;51.378;6.736;2022-12-07T09:01:00;4.70;99.90
59999;DHT22;45859;51.378;6.736;2022-12-07T09:03:26;4.70;99.90
59999;DHT22;45859;51.378;6.736;2022-12-07T09:05:53;4.70;99.90
59999;DHT22;45859;51.378;6.736;2022-12-07T09:08:19;4.80;99.90
59999;DHT22;45859;51.378;6.736;2022-12-07T09:10:46;4.80;99.90
59999;DHT22;45859;51.378;6.736;2022-12-07T09:13:13;4.70;99.90
59999;DHT22;45859;51.378;6.736;2022-12-07T09:15:38;4.70;99.90
59999;DHT22;45859;51.378;6.736;2022-12-07T09:18:04;4.70;99.90
59999;DHT22;45859;51.378;6.736;2022-12-07T09:20:30;4.80;99.90
59999;DHT22;45859;51.378;6.736;2022-12-07T09:22:56;4.90;99.90
59999;DHT22;45859;51.378;6.736;2022-12-07T09:25:22;5.10;99.90
59999;DHT22;45859;51.378;6.736;2022-12-07T09:27:48;5.50;99.90
59999;DHT22;45859;51.378;6.736;2022-12-07T09:30:13;5.60;99.90
59999;DHT22;45859;51.378;6.736;2022-12-07T09:32:39;5.70;99.90
59999;DHT22;45859;51.378;6.736;2022-12-07T09:35:05;5.70;99.90
59999;DHT22;45859;51.378;6.736;2022-12-07T09:37:31;5.70;99.90
59999;DHT22;45859;51.378;6.736;2022-12-07T09:40:00;5.60;99.90
59999;DHT22;45859;51.378;6.736;2022-12-07T09:42:28;5.40;99.90
59999;DHT22;45859;51.378;6.736;2022-12-07T09:44:55;5.30;99.90
59999;DHT22;45859;51.378;6.736;2022-12-07T09:47:21;5.30;99.90
59999;DHT22;45859;51.378;6.736;2022-12-07T09:49:47;5.20;99.90
59999;DHT22;45859;51.378;6.736;2022-12-07T09:52:25;5.10;99.90
59999;DHT22;45859;51.378;6.736;2022-12-07T09:54:52;5.10;99.90
59999;DHT22;45859;51.378;6.736;2022-12-07T09:57:29;5.00;99.90
59999;DHT22;45859;51.378;6.736;2022-12-07T10:00:02;5.00;99.90
59999;DHT22;45859;51.378;6.736;2022-12-07T10:02:39;5.00;99.90
59999;DHT22;45859;51.378;6.736;2022-12-07T10:05:12;5.00;99.90
59999;DHT22;45859;51.378;6.736;2022-12-07T10:07:38;5.00;99.90
59999;DHT22;45859;51.378;6.736;2022-12-07T10:10:14;5.00;99.90
59999;DHT22;45859;51.378;6.736;2022-12-07T10:15:46;4.90;99.90
59999;DHT22;45859;51.378;6.736;2022-12-07T10:23:33;4.90;99.90
59999;DHT22;45859;51.378;6.736;2022-12-07T10:25:59;5.10;99.90
59999;DHT22;45859;51.378;6.736;2022-12-07T10:28:38;5.20;99.90
59999;DHT22;45859;51.378;6.736;2022-12-07T10:31:17;5.40;99.90
59999;DHT22;45859;51.378;6.736;2022-12-07T10:33:55;5.50;99.90
59999;DHT22;45859;51.378;6.736;2022-12-07T10:36:36;5.70;99.90
59999;DHT22;45859;51.378;6.736;2022-12-07T10:39:13;6.00;99.90
59999;DHT22;45859;51.378;6.736;2022-12-07T10:41:59;6.20;99.90
59999;DHT22;45859;51.378;6.736;2022-12-07T10:44:28;6.40;99.90
59999;DHT22;45859;51.378;6.736;2022-12-07T10:49:42;6.70;99.90
59999;DHT22;45859;51.378;6.736;2022-12-07T10:52:34;6.70;99.90
59999;DHT22;45859;51.378;6.736;2022-12-07T10:55:22;6.70;99.90
59999;DHT22;45859;51.378;6.736;2022-12-07T10:57:56;6.80;99.90
59999;DHT22;45859;51.378;6.736;2022-12-07T11:03:52;7.00;99.90
59999;DHT22;45859;51.378;6.736;2022-12-07T11:14:40;7.20;99.90
59999;DHT22;45859;51.378;6.736;2022-12-07T11:17:26;7.20;99.90
59999;DHT22;45859;51.378;6.736;2022-12-07T11:20:13;7.10;99.90
59999;DHT22;45859;51.378;6.736;2022-12-07T11:31:29;7.20;99.90
59999;DHT22;45859;51.378;6.736;2022-12-07T11:34:10;7.20;99.90
59999;DHT22;45859;51.378;6.736;2022-12-07T11:36:47;7.20;99.90
59999;DHT22;45859;51.378;6.736;2022-12-07T11:42:05;7.30;99.90
59999;DHT22;45859;51.378;6.736;2022-12-07T11:44:57;7.30;99.90
59999;DHT22;45859;51.378;6.736;2022-12-07T11:52:52;7.30;99.90
59999;DHT22;45859;51.378;6.736;2022-12-07T11:58:32;7.20;99.90
59999;DHT22;45859;51.378;6.736;2022-12-07T12:03:41;7.20;99.90
59999;DHT22;45859;51.378;6.736;2022-12-07T12:06:09;7.20;99.90
59999;DHT22;45859;51.378;6.736;2022-12-07T12:25:34;7.20;99.90
59999;DHT22;45859;51.378;6.736;2022-12-07T12:28:02;7.20;99.90
59999;DHT22;45859;51.378;6.736;2022-12-07T12:33:15;7.10;99.90
59999;DHT22;45859;51.378;6.736;2022-12-07T12:35:43;7.00;99.90
59999;DHT22;45859;51.378;6.736;2022-12-07T12:38:47;7.00;99.90
59999;DHT22;45859;51.378;6.736;2022-12-07T12:47:38;6.30;99.90
59999;DHT22;45859;51.378;6.736;2022-12-07T12:57:32;5.80;99.90
59999;DHT22;45859;51.378;6.736;2022-12-07T13:00:00;5.80;99.90
59999;DHT22;45859;51.378;6.736;2022-12-07T13:02:33;5.80;99.90
59999;DHT22;45859;51.378;6.736;2022-12-07T13:15:45;5.90;99.90
59999;DHT22;45859;51.378;6.736;2022-12-07T13:23:54;5.90;99.90
59999;DHT22;45859;51.378;6.736;2022-12-07T13:28:49;6.00;99.90
59999;DHT22;45859;51.378;6.736;2022-12-07T13:33:47;5.90;99.90
59999;DHT22;45859;51.378;6.736;2022-12-07T13:38:54;6.00;99.90
59999;DHT22;45859;51.378;6.736;2022-12-07T13:41:22;6.00;99.90
59999;DHT22;45859;51.378;6.736;2022-12-07T13:43:52;6.00;99.90
59999;DHT22;45859;51.378;6.736;2022-12-07T13:46:23;6.00;99.90
59999;DHT22;45859;51.378;6.736;2022-12-07T13:48:50;6.00;99.90
59999;DHT22;45859;51.378;6.736;2022-12-07T13:51:28;6.00;99.90
59999;DHT22;45859;51.378;6.736;2022-12-07T13:53:59;6.00;99.90
59999;DHT22;45859;51.378;6.736;2022-12-07T13:56:31;6.00;99.90
59999;DHT22;45859;51.378;6.736;2022-12-07T13:58:58;6.00;99.90
59999;DHT22;45859;51.378;6.736;2022-12-07T14:01:25;6.00;99.90
59999;DHT22;45859;51.378;6.736;2022-12-07T14:03:50;5.90;99.90
59999;DHT22;45859;51.378;6.736;2022-12-07T14:06:26;5.90;99.90
59999;DHT22;45859;51.378;6.736;2022-12-07T14:11:40;5.80;99.90
59999;DHT22;45859;51.378;6.736;2022-12-07T14:14:14;5.70;99.90
59999;DHT22;45859;51.378;6.736;2022-12-07T14:16:40;5.60;99.90
59999;DHT22;45859;51.378;6.736;2022-12-07T14:22:15;5.40;99.90
59999;DHT22;45859;51.378;6.736;2022-12-07T14:24:43;5.40;99.90
59999;DHT22;45859;51.378;6.736;2022-12-07T14:27:22;5.40;99.90
59999;DHT22;45859;51.378;6.736;2022-12-07T14:29:48;5.40;99.90
59999;DHT22;45859;51.378;6.736;2022-12-07T14:32:35;5.40;99.90
59999;DHT22;45859;51.378;6.736;2022-12-07T14:35:10;5.30;99.90
59999;DHT22;45859;51.378;6.736;2022-12-07T14:37:37;5.20;99.90
59999;DHT22;45859;51.378;6.736;2022-12-07T14:40:04;5.20;99.90
59999;DHT22;45859;51.378;6.736;2022-12-07T14:42:31;5.10;99.90
59999;DHT22;45859;51.378;6.736;2022-12-07T14:44:58;5.00;99.90
59999;DHT22;45859;51.378;6.736;2022-12-07T14:47:25;5.00;99.90
59999;DHT22;45859;51.378;6.736;2022-12-07T14:49:52;5.00;99.90
59999;DHT22;45859;51.378;6.736;2022-12-07T14:52:24;5.00;99.90
59999;DHT22;45859;51.378;6.736;2022-12-07T14:54:52;4.90;99.90
59999;DHT22;45859;51.378;6.736;2022-12-07T14:57:18;4.90;99.90
59999;DHT22;45859;51.378;6.736;2022-12-07T14:59:44;4.90;99.90
59999;DHT22;45859;51.378;6.736;2022-12-07T15:02:12;4.80;99.90
59999;DHT22;45859;51.378;6.736;2022-12-07T15:04:38;4.80;99.90
59999;DHT22;45859;51.378;6.736;2022-12-07T15:07:05;4.80;99.90
59999;DHT22;45859;51.378;6.736;2022-12-07T15:09:32;4.70;99.90
59999;DHT22;45859;51.378;6.736;2022-12-07T15:11:58;4.70;99.90
59999;DHT22;45859;51.378;6.736;2022-12-07T15:14:23;4.70;99.90
59999;DHT22;45859;51.378;6.736;2022-12-07T15:16:49;4.60;99.90
59999;DHT22;45859;51.378;6.736;2022-12-07T15:19:18;4.50;99.90
59999;DHT22;45859;51.378;6.736;2022-12-07T15:21:44;4.50;99.90
59999;DHT22;45859;51.378;6.736;2022-12-07T15:24:11;4.50;99.90
59999;DHT22;45859;51.378;6.736;2022-12-07T15:26:38;4.50;99.90
59999;DHT22;45859;51.378;6.736;2022-12-07T15:29:08;4.50;99.90
59999;DHT22;45859;51.378;6.736;2022-12-07T15:31:34;4.50;99.90
59999;DHT22;45859;51.378;6.736;2022-12-07T15:34:01;4.60;99.90
59999;DHT22;45859;51.378;6.736;2022-12-07T15:36:28;4.70;99.90
59999;DHT22;45859;51.378;6.736;2022-12-07T15:38:56;4.70;99.90
59999;DHT22;45859;51.378;6.736;2022-12-07T15:41:22;4.80;99.90
59999;DHT22;45859;51.378;6.736;2022-12-07T15:43:48;4.80;99.90
59999;DHT22;45859;51.378;6.736;2022-12-07T15:46:34;4.80;99.90
59999;DHT22;45859;51.378;6.736;2022-12-07T15:49:01;4.90;99.90
59999;DHT22;45859;51.378;6.736;2022-12-07T15:51:27;4.90;99.90
59999;DHT22;45859;51.378;6.736;2022-12-07T15:53:53;4.90;99.90
59999;DHT22;45859;51.378;6.736;2022-12-07T15:56:19;4.90;99.90
59999;DHT22;45859;51.378;6.736;2022-12-07T15:58:45;4.90;99.90
59999;DHT22;45859;51.378;6.736;2022-12-07T16:01:17;4.90;99.90
59999;DHT22;45859;51.378;6.736;2022-12-07T16:03:43;5.00;99.90
59999;DHT22;45859;51.378;6.736;2022-12-07T16:06:10;5.00;99.90
59999;DHT22;45859;51.378;6.736;2022-12-07T16:08:36;5.00;99.90
59999;DHT22;45859;51.378;6.736;2022-12-07T16:11:06;5.00;99.90
59999;DHT22;45859;51.378;6.736;2022-12-07T16:13:32;5.00;99.90
59999;DHT22;45859;51.378;6.736;2022-12-07T16:15:58;5.10;99.90
59999;DHT22;45859;51.378;6.736;2022-12-07T16:18:24;5.10;99.90
59999;DHT22;45859;51.378;6.736;2022-12-07T16:20:50;5.10;99.90
59999;DHT22;45859;51.378;6.736;2022-12-07T16:23:16;5.10;99.90
59999;DHT22;45859;51.378;6.736;2022-12-07T16:25:42;5.10;99.90
59999;DHT22;45859;51.378;6.736;2022-12-07T16:28:08;5.10;99.90
59999;DHT22;45859;51.378;6.736;2022-12-07T16:30:33;5.10;99.90
59999;DHT22;45859;51.378;6.736;2022-12-07T16:32:59;5.20;99.90
59999;DHT22;45859;51.378;6.736;2022-12-07T16:35:25;5.20;99.90
59999;DHT22;45859;51.378;6.736;2022-12-07T16:37:51;5.20;99.90
59999;DHT22;45859;51.378;6.736;2022-12-07T16:40:17;5.20;99.90
59999;DHT22;45859;51.378;6.736;2022-12-07T16:42:42;5.30;99.90
59999;DHT22;45859;51.378;6.736;2022-12-07T16:45:08;5.20;99.90
59999;DHT22;45859;51.378;6.736;2022-12-07T16:47:37;5.20;99.90
59999;DHT22;45859;51.378;6.736;2022-12-07T16:50:03;5.30;99.90
59999;DHT22;45859;51.378;6.736;2022-12-07T16:52:29;5.30;99.90
59999;DHT22;45859;51.378;6.736;2022-12-07T16:54:55;5.30;99.90
59999;DHT22;45859;51.378;6.736;2022-12-07T16:57:21;5.40;99.90
59999;DHT22;45859;51.378;6.736;2022-12-07T16:59:47;5.40;99.90
59999;DHT22;45859;51.378;6.736;2022-12-07T17:02:13;5.40;99.90
59999;DHT22;45859;51.378;6.736;2022-12-07T17:04:39;5.50;99.90
59999;DHT22;45859;51.378;6.736;2022-12-07T17:07:10;5.40;99.90
59999;DHT22;45859;51.378;6.736;2022-12-07T17:09:40;5.40;99.90
59999;DHT22;45859;51.378;6.736;2022-12-07T17:12:06;5.30;99.90
59999;DHT22;45859;51.378;6.736;2022-12-07T17:14:32;5.20;99.90
59999;DHT22;45859;51.378;6.736;2022-12-07T17:17:16;5.20;99.90
59999;DHT22;45859;51.378;6.736;2022-12-07T17:19:42;5.10;99.90
59999;DHT22;45859;51.378;6.736;2022-12-07T17:22:09;5.10;99.90
59999;DHT22;45859;51.378;6.736;2022-12-07T17:24:38;5.10;99.90
59999;DHT22;45859;51.378;6.736;2022-12-07T17:27:04;5.10;99.90
59999;DHT22;45859;51.378;6.736;2022-12-07T17:29:30;5.00;99.90
59999;DHT22;45859;51.378;6.736;2022-12-07T17:31:57;5.00;99.90
59999;DHT22;45859;51.378;6.736;2022-12-07T17:34:22;5.00;99.90
59999;DHT22;45859;51.378;6.736;2022-12-07T17:36:49;4.90;99.90
59999;DHT22;45859;51.378;6.736;2022-12-07T17:39:17;5.00;99.90
59999;DHT22;45859;51.378;6.736;2022-12-07T17:41:44;4.90;99.90
59999;DHT22;45859;51.378;6.736;2022-12-07T17:44:28;4.90;99.90
59999;DHT22;45859;51.378;6.736;2022-12-07T17:46:54;4.90;99.90
59999;DHT22;45859;51.378;6.736;2022-12-07T17:49:22;4.90;99.90
59999;DHT22;45859;51.378;6.736;2022-12-07T17:51:49;4.90;99.90
59999;DHT22;45859;51.378;6.736;2022-12-07T17:54:33;4.90;99.90
59999;DHT22;45859;51.378;6.736;2022-12-07T17:56:59;4.90;99.90
59999;DHT22;45859;51.378;6.736;2022-12-07T17:59:24;4.80;99.90
59999;DHT22;45859;51.378;6.736;2022-12-07T18:01:50;4.80;99.90
59999;DHT22;45859;51.378;6.736;2022-12-07T18:04:16;4.80;99.90
59999;DHT22;45859;51.378;6.736;2022-12-07T18:06:42;4.80;99.90
59999;DHT22;45859;51.378;6.736;2022-12-07T18:09:10;4.70;99.90
59999;DHT22;45859;51.378;6.736;2022-12-07T18:11:37;4.60;99.90
59999;DHT22;45859;51.378;6.736;2022-12-07T18:14:03;4.60;99.90
59999;DHT22;45859;51.378;6.736;2022-12-07T18:16:30;4.60;99.90